Time;durP1;ratioP1;P1;durP2;ratioP2;P2;SDS_P1;SDS_P2;PMS_P1;PMS_P2;Temp;Humidity;BMP_temperature;BMP_pressure;BME280_temperature;BME280_humidity;BME280_pressure;Samples;Min_cycle;Max_cycle;Signal;HPM_P1;HPM_P2
2024/01/27 00:01:11;;;;;;;3.13;2.60;;;;;;;5.03;100.00;97227.25;7403598;19;20384;-91
2024/01/27 00:03:38;;;;;;;7.80;3.30;;;;;;;5.04;100.00;97242.63;7401752;19;20416;-91
2024/01/27 00:06:06;;;;;;;5.43;3.23;;;;;;;5.36;100.00;97294.06;7402020;19;20702;-91
2024/01/27 00:08:33;;;;;;;5.53;2.60;;;;;;;4.40;100.00;97150.44;7403479;19;20364;-91
2024/01/27 00:11:01;;;;;;;6.50;2.40;;;;;;;4.87;100.00;97228.06;7403182;19;20417;-91
2024/01/27 00:13:28;;;;;;;10.33;2.63;;;;;;;4.84;100.00;97226.72;7402316;19;20913;-90
2024/01/27 00:15:55;;;;;;;12.20;4.00;;;;;;;4.41;100.00;97157.97;7419201;19;20690;-88
2024/01/27 00:18:23;;;;;;;6.60;2.70;;;;;;;4.57;100.00;97181.59;7422273;19;20369;-88
2024/01/27 00:20:50;;;;;;;4.03;2.60;;;;;;;4.43;100.00;97168.13;7411123;19;20361;-90
2024/01/27 00:23:21;;;;;;;4.40;1.77;;;;;;;4.24;100.00;97135.63;7403336;19;20418;-90
2024/01/27 00:25:48;;;;;;;3.57;1.90;;;;;;;4.63;100.00;97204.03;7401848;19;20421;-90
2024/01/27 00:28:16;;;;;;;4.17;2.43;;;;;;;4.49;100.00;97193.16;7403383;19;20377;-89
2024/01/27 00:30:43;;;;;;;4.50;2.03;;;;;;;4.59;100.00;97218.53;7402199;19;20735;-90
2024/01/27 00:33:11;;;;;;;4.00;2.70;;;;;;;4.25;100.00;97171.78;7400581;19;20905;-90
2024/01/27 00:35:38;;;;;;;5.10;2.80;;;;;;;4.48;100.00;97209.78;7402506;19;20373;-89
2024/01/27 00:38:06;;;;;;;4.83;2.77;;;;;;;4.43;100.00;97213.09;7402242;19;20368;-89
2024/01/27 00:40:33;;;;;;;4.10;2.70;;;;;;;4.77;100.00;97262.53;7402208;19;20357;-90
2024/01/27 00:43:04;;;;;;;9.03;2.53;;;;;;;4.81;100.00;97268.81;7400951;19;20393;-90
2024/01/27 00:45:31;;;;;;;2.60;2.40;;;;;;;4.31;100.00;97216.78;7401605;19;20377;-89
2024/01/27 00:47:59;;;;;;;3.87;2.80;;;;;;;3.96;100.00;97185.81;7401926;19;20381;-92
2024/01/27 00:50:27;;;;;;;3.57;2.57;;;;;;;3.99;100.00;97185.38;7403398;19;20700;-92
2024/01/27 00:52:54;;;;;;;2.40;2.20;;;;;;;4.25;100.00;97204.75;7400701;19;20457;-92
2024/01/27 00:55:25;;;;;;;5.50;2.53;;;;;;;4.59;100.00;97260.91;7401623;19;20393;-91
2024/01/27 00:57:53;;;;;;;6.77;3.17;;;;;;;4.24;100.00;97222.16;7402593;19;20800;-90
2024/01/27 01:00:21;;;;;;;3.90;2.50;;;;;;;3.85;100.00;97164.88;7401783;19;20726;-89
2024/01/27 01:02:48;;;;;;;4.63;1.93;;;;;;;4.25;100.00;97239.31;7401079;19;20416;-90
2024/01/27 01:05:16;;;;;;;5.10;3.13;;;;;;;3.87;100.00;97198.41;7401584;19;20369;-90
2024/01/27 01:07:43;;;;;;;4.43;3.17;;;;;;;4.13;100.00;97241.97;7401251;19;20410;-90
2024/01/27 01:10:10;;;;;;;4.30;2.73;;;;;;;3.92;100.00;97221.06;7401317;19;20373;-90
2024/01/27 01:12:38;;;;;;;9.50;4.50;;;;;;;3.89;100.00;97230.09;7400332;19;20426;-90
2024/01/27 01:15:06;;;;;;;6.10;1.80;;;;;;;4.10;100.00;97259.81;7400788;19;20390;-90
2024/01/27 01:17:33;;;;;;;3.50;2.87;;;;;;;3.88;100.00;97233.72;7401528;19;20377;-90
2024/01/27 01:20:01;;;;;;;4.63;3.00;;;;;;;3.65;100.00;97216.41;7400811;19;20375;-90
2024/01/27 01:22:28;;;;;;;5.43;3.03;;;;;;;3.73;100.00;97218.66;7400605;19;20385;-90
2024/01/27 01:24:56;;;;;;;3.77;2.70;;;;;;;3.38;100.00;97210.97;7400752;19;20448;-91
2024/01/27 01:27:23;;;;;;;5.70;2.63;;;;;;;3.15;100.00;97209.19;7398640;19;20383;-91
2024/01/27 01:29:53;;;;;;;2.90;2.43;;;;;;;3.17;100.00;97204.59;7400155;19;20413;-90
2024/01/27 01:32:21;;;;;;;6.03;2.53;;;;;;;3.39;100.00;97216.94;7400130;19;20389;-90
2024/01/27 01:34:49;;;;;;;9.10;3.90;;;;;;;3.63;100.00;97228.84;7399953;19;20381;-90
2024/01/27 01:37:16;;;;;;;4.67;3.80;;;;;;;3.54;100.00;97225.03;7399736;19;20385;-90
2024/01/27 01:39:44;;;;;;;8.97;3.40;;;;;;;3.90;100.00;97263.63;7400166;19;20377;-90
2024/01/27 01:42:11;;;;;;;2.80;2.60;;;;;;;3.64;100.00;97217.44;7400690;19;20380;-90
2024/01/27 01:44:39;;;;;;;5.43;3.13;;;;;;;3.63;100.00;97220.28;7398145;19;20726;-90
2024/01/27 01:47:08;;;;;;;3.80;2.70;;;;;;;3.74;100.00;97235.03;7398284;19;20746;-90
2024/01/27 01:49:38;;;;;;;5.40;3.30;;;;;;;3.49;100.00;97212.75;7400666;19;20365;-91
2024/01/27 01:52:06;;;;;;;6.60;2.20;;;;;;;4.26;100.00;97337.03;7399182;19;20353;-90
2024/01/27 01:54:33;;;;;;;10.17;3.77;;;;;;;3.31;100.00;97199.94;7398377;19;20412;-90
2024/01/27 01:57:03;;;;;;;7.00;2.90;;;;;;;3.40;100.00;97229.69;7400383;19;20464;-91
2024/01/27 01:59:32;;;;;;;8.13;2.57;;;;;;;3.40;100.00;97241.88;7399643;19;20376;-90
2024/01/27 02:02:01;;;;;;;3.23;2.90;;;;;;;3.52;100.00;97271.97;7399657;19;20385;-90
2024/01/27 02:04:48;;;;;;;6.77;2.70;;;;;;;3.39;100.00;97253.25;7396999;19;20408;-90
2024/01/27 02:07:16;;;;;;;4.67;3.47;;;;;;;2.99;100.00;97192.53;7397359;19;20448;-91
2024/01/27 02:09:44;;;;;;;5.50;3.00;;;;;;;3.24;100.00;97231.19;7399172;19;20380;-90
2024/01/27 02:12:11;;;;;;;6.03;3.40;;;;;;;3.53;100.00;97285.72;7398539;19;20389;-90
2024/01/27 02:14:39;;;;;;;3.83;2.73;;;;;;;3.38;100.00;97262.06;7400539;19;20373;-89
2024/01/27 02:17:06;;;;;;;6.10;3.57;;;;;;;3.29;100.00;97246.84;7400408;19;20364;-90
2024/01/27 02:19:33;;;;;;;11.70;3.83;;;;;;;2.97;100.00;97204.16;7398777;19;20392;-90
2024/01/27 02:22:02;;;;;;;8.67;3.33;;;;;;;2.48;100.00;97143.19;7398812;19;20377;-90
2024/01/27 02:24:29;;;;;;;5.90;3.17;;;;;;;2.66;100.00;97166.44;7396796;19;20458;-90
2024/01/27 02:26:57;;;;;;;7.50;3.33;;;;;;;3.16;100.00;97259.25;7397508;19;20689;-90
2024/01/27 02:29:27;;;;;;;3.50;2.87;;;;;;;3.04;100.00;97220.41;7398568;19;20382;-90
2024/01/27 02:31:57;;;;;;;6.47;2.93;;;;;;;3.44;100.00;97307.88;7396284;19;20365;-90
2024/01/27 02:34:25;;;;;;;5.33;2.60;;;;;;;3.58;100.00;97328.16;7396630;19;20381;-90
2024/01/27 02:36:52;;;;;;;3.63;2.97;;;;;;;3.54;100.00;97318.44;7397824;19;20381;-91
2024/01/27 02:39:21;;;;;;;4.83;3.53;;;;;;;3.08;100.00;97260.41;7397968;19;20373;-90
2024/01/27 02:41:49;;;;;;;5.67;3.50;;;;;;;3.38;100.00;97311.38;7397899;19;20390;-90
2024/01/27 02:44:16;;;;;;;8.30;3.03;;;;;;;2.95;100.00;97245.09;7396488;19;20440;-90
2024/01/27 02:46:44;;;;;;;5.83;3.40;;;;;;;3.08;100.00;97264.81;7397436;19;20407;-90
2024/01/27 02:49:12;;;;;;;6.97;3.20;;;;;;;3.07;100.00;97266.63;7418750;19;20376;-90
2024/01/27 02:51:39;;;;;;;5.67;3.70;;;;;;;3.19;100.00;97285.56;7422378;19;20361;-90
2024/01/27 02:54:06;;;;;;;6.70;3.20;;;;;;;3.06;100.00;97259.84;7417424;19;20417;-90
2024/01/27 02:56:34;;;;;;;4.80;3.23;;;;;;;2.97;100.00;97253.41;7397858;19;20372;-90
2024/01/27 02:59:02;;;;;;;7.20;3.63;;;;;;;2.46;100.00;97182.28;7397838;19;20369;-90
2024/01/27 03:01:29;;;;;;;7.53;2.80;;;;;;;3.15;100.00;97281.03;7398005;19;20368;-90
2024/01/27 03:03:57;;;;;;;9.83;3.07;;;;;;;2.95;100.00;97250.25;7398385;19;20396;-91
2024/01/27 03:06:24;;;;;;;7.10;3.10;;;;;;;3.80;100.00;97376.88;7396571;19;20385;-91
2024/01/27 03:08:52;;;;;;;8.90;3.10;;;;;;;2.90;100.00;97281.28;7398195;19;20360;-90
2024/01/27 03:11:19;;;;;;;7.47;2.30;;;;;;;2.88;100.00;97265.13;7397117;19;20838;-90
2024/01/27 03:13:47;;;;;;;9.53;4.07;;;;;;;3.33;100.00;97347.59;7395683;19;20490;-90
2024/01/27 03:16:15;;;;;;;4.43;3.40;;;;;;;2.91;100.00;97275.88;7396878;19;20397;-90
2024/01/27 03:18:42;;;;;;;5.93;3.50;;;;;;;3.32;100.00;97333.03;7397305;19;20392;-90
2024/01/27 03:21:10;;;;;;;6.33;3.40;;;;;;;3.05;100.00;97291.97;7396635;19;20862;-91
2024/01/27 03:23:37;;;;;;;7.80;3.13;;;;;;;3.58;100.00;97374.09;7397532;19;20405;-90
2024/01/27 03:26:05;;;;;;;12.07;2.80;;;;;;;2.89;100.00;97267.50;7396558;19;20452;-88
2024/01/27 03:28:33;;;;;;;5.50;3.20;;;;;;;2.93;100.00;97281.59;7396407;19;20414;-90
2024/01/27 03:31:00;;;;;;;5.20;3.17;;;;;;;3.26;100.00;97338.09;7396584;19;20876;-91
2024/01/27 03:33:30;;;;;;;4.27;3.47;;;;;;;3.24;100.00;97334.16;7395783;19;20428;-90
2024/01/27 03:35:58;;;;;;;5.17;3.60;;;;;;;3.36;100.00;97367.88;7398930;19;20365;-89
2024/01/27 03:38:26;;;;;;;6.30;3.10;;;;;;;2.61;100.00;97252.59;7414168;19;20388;-90
2024/01/27 03:40:53;;;;;;;6.30;3.77;;;;;;;2.91;100.00;97304.38;7418422;19;20931;-90
2024/01/27 03:43:20;;;;;;;6.63;3.50;;;;;;;3.22;100.00;97355.13;7405861;19;20432;-90
2024/01/27 03:45:48;;;;;;;8.00;3.10;;;;;;;3.34;100.00;97370.72;7395925;19;20687;-90
2024/01/27 03:48:16;;;;;;;5.33;3.40;;;;;;;3.20;100.00;97362.34;7394246;19;20377;-90
2024/01/27 03:50:44;;;;;;;9.03;2.90;;;;;;;3.20;100.00;97364.94;7396625;19;20352;-90
2024/01/27 03:53:12;;;;;;;4.30;3.20;;;;;;;3.16;100.00;97373.38;7394590;19;20431;-90
2024/01/27 03:55:40;;;;;;;6.27;2.90;;;;;;;2.93;100.00;97325.69;7395836;19;20865;-89
2024/01/27 03:58:07;;;;;;;5.60;3.57;;;;;;;2.92;100.00;97320.72;7396319;19;20365;-90
2024/01/27 04:00:35;;;;;;;6.43;3.47;;;;;;;3.19;100.00;97388.53;7396302;19;20361;-90
2024/01/27 04:03:02;;;;;;;8.87;3.87;;;;;;;2.84;100.00;97350.34;7395570;19;20415;-90
2024/01/27 04:05:30;;;;;;;4.57;2.80;;;;;;;2.69;100.00;97311.09;7396061;19;20356;-90
2024/01/27 04:07:58;;;;;;;7.37;3.20;;;;;;;3.04;100.00;97375.97;7399671;19;20758;-91
2024/01/27 04:10:25;;;;;;;5.97;3.13;;;;;;;3.19;100.00;97410.06;7403184;19;20384;-91
2024/01/27 04:12:53;;;;;;;7.63;3.40;;;;;;;2.87;100.00;97359.47;7402561;19;20408;-90
2024/01/27 04:15:21;;;;;;;12.53;3.90;;;;;;;2.84;100.00;97402.19;7403085;19;20383;-90
2024/01/27 04:17:48;;;;;;;6.70;3.60;;;;;;;3.07;100.00;97411.84;7404648;19;20377;-90
2024/01/27 04:20:16;;;;;;;10.03;3.17;;;;;;;3.20;100.00;97434.19;7404503;19;20393;-90
2024/01/27 04:22:44;;;;;;;7.73;4.23;;;;;;;3.50;100.00;97457.47;7402714;19;20377;-91
2024/01/27 04:25:11;;;;;;;6.70;3.10;;;;;;;3.10;100.00;97395.03;7404774;19;20450;-91
2024/01/27 04:27:40;;;;;;;7.13;3.00;;;;;;;3.18;100.00;97420.66;7400717;19;20423;-91
2024/01/27 04:30:08;;;;;;;14.50;4.07;;;;;;;3.53;100.00;97475.97;7402983;19;20406;-90
2024/01/27 04:32:36;;;;;;;5.50;3.57;;;;;;;2.68;100.00;97353.56;7402464;19;20405;-90
2024/01/27 04:35:04;;;;;;;10.23;4.47;;;;;;;2.65;100.00;97370.38;7402762;19;20375;-90
2024/01/27 04:37:32;;;;;;;11.30;3.70;;;;;;;3.40;100.00;97472.78;7402283;19;20392;-90
2024/01/27 04:40:00;;;;;;;10.30;4.10;;;;;;;2.79;100.00;97390.91;7401728;19;20389;-90
2024/01/27 04:42:27;;;;;;;8.03;3.57;;;;;;;3.24;100.00;97456.88;7401889;19;20369;-90
2024/01/27 04:44:55;;;;;;;9.60;3.80;;;;;;;2.81;100.00;97391.47;7401910;19;20383;-90
2024/01/27 04:47:22;;;;;;;8.70;3.73;;;;;;;2.98;100.00;97434.69;7400930;19;20392;-91
2024/01/27 04:49:51;;;;;;;8.13;4.27;;;;;;;2.81;100.00;97420.00;7401966;19;20401;-90
2024/01/27 04:52:18;;;;;;;23.93;11.00;;;;;;;2.42;100.00;97359.91;7400903;19;20404;-90
2024/01/27 04:54:46;;;;;;;15.67;10.43;;;;;;;3.21;100.00;97483.25;7401852;19;20420;-91
2024/01/27 04:57:13;;;;;;;16.10;10.00;;;;;;;2.78;100.00;97430.81;7401328;19;20409;-91
2024/01/27 04:59:41;;;;;;;23.10;8.50;;;;;;;3.07;100.00;97473.28;7401807;19;20400;-90
2024/01/27 05:02:22;;;;;;;9.20;5.30;;;;;;;2.74;100.00;97429.66;7403151;19;20357;-91
2024/01/27 05:04:49;;;;;;;7.03;3.10;;;;;;;2.83;100.00;97430.94;7402168;19;20357;-91
2024/01/27 05:07:17;;;;;;;8.70;3.87;;;;;;;2.54;100.00;97381.47;7401096;19;20399;-91
2024/01/27 05:09:44;;;;;;;5.50;3.70;;;;;;;2.40;100.00;97372.31;7401251;19;20387;-90
2024/01/27 05:12:12;;;;;;;6.27;3.20;;;;;;;2.34;100.00;97380.94;7401187;19;20401;-91
2024/01/27 05:14:45;;;;;;;7.30;3.47;;;;;;;2.16;100.00;97370.59;7400843;19;20873;-90
2024/01/27 05:17:13;;;;;;;5.83;3.70;;;;;;;1.95;100.00;97351.91;7400550;19;20444;-91
2024/01/27 05:19:40;;;;;;;4.47;3.57;;;;;;;2.16;100.00;97399.88;7399439;19;20387;-90
2024/01/27 05:22:08;;;;;;;4.73;3.47;;;;;;;2.36;100.00;97438.47;7400798;19;20373;-91
2024/01/27 05:24:35;;;;;;;4.10;3.60;;;;;;;2.34;100.00;97446.47;7398675;19;20419;-91
2024/01/27 05:27:03;;;;;;;12.23;3.73;;;;;;;1.98;100.00;97398.09;7400531;19;20377;-91
2024/01/27 05:29:31;;;;;;;6.20;3.83;;;;;;;2.02;100.00;97403.63;7402147;19;20387;-91
2024/01/27 05:31:58;;;;;;;13.60;4.97;;;;;;;2.03;100.00;97420.75;7401288;19;20385;-91
2024/01/27 05:34:25;;;;;;;7.17;4.63;;;;;;;1.98;100.00;97400.69;7398204;19;20408;-91
2024/01/27 05:36:53;;;;;;;7.40;4.00;;;;;;;2.31;100.00;97457.28;7400354;19;20383;-91
2024/01/27 05:39:21;;;;;;;6.00;3.60;;;;;;;2.20;100.00;97433.91;7399723;19;20870;-90
2024/01/27 05:41:49;;;;;;;5.17;3.20;;;;;;;1.77;100.00;97388.16;7400034;19;20376;-91
2024/01/27 05:44:16;;;;;;;11.00;3.60;;;;;;;1.94;100.00;97414.25;7398188;19;20400;-91
2024/01/27 05:46:44;;;;;;;4.60;3.57;;;;;;;2.04;100.00;97438.66;7402109;19;20448;-90
2024/01/27 05:49:11;;;;;;;8.77;3.97;;;;;;;1.88;100.00;97410.75;7405409;19;20402;-90
2024/01/27 05:51:39;;;;;;;8.40;3.77;;;;;;;1.81;100.00;97399.66;7404344;19;20376;-90
2024/01/27 05:54:06;;;;;;;11.20;3.90;;;;;;;1.82;100.00;97429.69;7397285;19;20427;-90
2024/01/27 05:56:36;;;;;;;6.37;4.43;;;;;;;1.66;100.00;97414.75;7399784;19;20408;-90
2024/01/27 05:59:03;;;;;;;9.13;5.77;;;;;;;1.98;100.00;97464.63;7400286;19;20380;-90
2024/01/27 06:01:31;;;;;;;10.17;5.13;;;;;;;1.65;100.00;97451.97;7398974;19;20397;-91
2024/01/27 06:03:58;;;;;;;7.37;4.80;;;;;;;1.44;100.00;97437.63;7397588;19;20425;-90
2024/01/27 06:06:26;;;;;;;10.10;6.33;;;;;;;1.28;100.00;97438.94;7400884;19;20393;-91
2024/01/27 06:09:02;;;;;;;7.90;5.20;;;;;;;1.03;100.00;97400.16;7398602;19;20373;-91
2024/01/27 06:11:34;;;;;;;10.53;4.47;;;;;;;1.41;100.00;97464.69;7400347;19;20357;-91
2024/01/27 06:14:04;;;;;;;9.60;4.27;;;;;;;1.46;100.00;97471.84;7397520;19;20411;-90
2024/01/27 06:16:33;;;;;;;7.27;4.17;;;;;;;1.37;100.00;97454.97;7398623;19;20369;-91
2024/01/27 06:19:01;;;;;;;5.40;3.93;;;;;;;1.69;100.00;97499.69;7399171;19;20432;-91
2024/01/27 06:21:28;;;;;;;8.93;4.70;;;;;;;1.07;100.00;97403.09;7399316;19;20461;-91
2024/01/27 06:23:55;;;;;;;10.20;4.80;;;;;;;1.48;100.00;97464.66;7398058;19;20416;-91
2024/01/27 06:26:23;;;;;;;9.53;5.50;;;;;;;1.09;100.00;97424.38;7398838;19;20371;-91
2024/01/27 06:28:50;;;;;;;7.97;6.00;;;;;;;1.61;100.00;97507.72;7396312;19;20389;-91
2024/01/27 06:31:18;;;;;;;13.40;6.57;;;;;;;1.27;100.00;97457.25;7397945;19;20705;-91
2024/01/27 06:33:45;;;;;;;8.40;5.60;;;;;;;1.48;100.00;97475.00;7398569;19;20381;-88
2024/01/27 06:36:13;;;;;;;7.23;4.97;;;;;;;2.06;100.00;97557.53;7397396;19;20357;-87
2024/01/27 06:38:41;;;;;;;9.50;4.20;;;;;;;1.02;100.00;97423.59;7397182;19;20369;-87
2024/01/27 06:41:08;;;;;;;7.97;4.60;;;;;;;1.10;100.00;97418.97;7399082;19;20369;-87
2024/01/27 06:43:35;;;;;;;9.33;4.80;;;;;;;1.16;100.00;97469.88;7397605;19;20388;-87
2024/01/27 06:46:03;;;;;;;10.27;3.90;;;;;;;0.98;100.00;97458.63;7396972;19;20377;-87
2024/01/27 06:48:30;;;;;;;4.13;3.73;;;;;;;0.62;100.00;97410.94;7395750;19;20781;-87
2024/01/27 06:50:58;;;;;;;8.50;3.90;;;;;;;1.63;100.00;97552.28;7396958;19;20696;-87
2024/01/27 06:53:25;;;;;;;6.87;3.70;;;;;;;0.67;100.00;97402.56;7395603;19;20427;-87
2024/01/27 06:58:24;;;;;;;10.00;5.23;;;;;;;0.66;100.00;97388.88;7398203;19;20372;-87
2024/01/27 07:00:51;;;;;;;6.33;4.50;;;;;;;0.70;100.00;97409.91;7396447;19;20389;-87
2024/01/27 07:03:19;;;;;;;7.57;4.70;;;;;;;0.94;100.00;97442.75;7395919;19;20414;-87
2024/01/27 07:05:47;;;;;;;9.10;4.40;;;;;;;0.40;100.00;97400.13;7396744;19;20696;-87
2024/01/27 07:08:16;;;;;;;5.90;4.13;;;;;;;1.30;100.00;97542.97;7395805;19;20389;-87
2024/01/27 07:10:43;;;;;;;7.60;4.50;;;;;;;1.41;100.00;97459.50;7398432;19;20365;-88
2024/01/27 07:13:11;;;;;;;7.70;5.07;;;;;;;1.31;100.00;97469.56;7395260;19;20421;-87
2024/01/27 07:15:38;;;;;;;12.00;6.43;;;;;;;1.43;100.00;97470.47;7396153;19;20879;-87
2024/01/27 07:18:07;;;;;;;14.07;7.67;;;;;;;1.55;100.00;97462.78;7396045;19;20377;-87
2024/01/27 07:20:35;;;;;;;12.30;6.90;;;;;;;1.16;100.00;97381.16;7396699;19;20381;-87
2024/01/27 07:23:03;;;;;;;7.03;6.33;;;;;;;1.91;100.00;97502.69;7395866;19;20472;-87
2024/01/27 07:25:31;;;;;;;13.00;10.13;;;;;;;2.46;100.00;97608.97;7395733;19;20846;-87
2024/01/27 07:27:58;;;;;;;13.93;8.17;;;;;;;0.70;100.00;97348.69;7395319;19;20436;-87
2024/01/27 07:30:25;;;;;;;7.50;6.70;;;;;;;0.54;100.00;97351.78;7395747;19;20870;-87
2024/01/27 07:32:53;;;;;;;15.10;8.90;;;;;;;1.12;100.00;97414.38;7394646;19;20476;-87
2024/01/27 07:35:20;;;;;;;11.20;7.93;;;;;;;1.44;100.00;97494.53;7395749;19;20377;-87
2024/01/27 07:37:48;;;;;;;16.17;7.57;;;;;;;0.92;100.00;97424.88;7395235;19;20409;-88
2024/01/27 07:40:15;;;;;;;10.03;5.20;;;;;;;1.67;100.00;97528.38;7393356;19;20417;-89
2024/01/27 07:42:43;;;;;;;6.73;4.20;;;;;;;0.99;100.00;97417.06;7402201;19;20692;-89
2024/01/27 07:45:10;;;;;;;6.03;4.97;;;;;;;1.81;100.00;97537.59;7403289;19;20391;-87
2024/01/27 07:47:38;;;;;;;9.43;5.40;;;;;;;1.33;100.00;97474.50;7402537;19;20377;-89
2024/01/27 07:50:06;;;;;;;3.97;3.67;;;;;;;1.54;100.00;97510.34;7402970;19;20387;-90
2024/01/27 07:52:34;;;;;;;6.83;3.97;;;;;;;1.77;100.00;97533.88;7401661;19;20415;-89
2024/01/27 07:55:02;;;;;;;12.33;3.90;;;;;;;1.89;100.00;97551.31;7403345;19;20380;-89
2024/01/27 07:57:29;;;;;;;5.30;4.83;;;;;;;1.61;100.00;97487.03;7402775;19;20384;-88
2024/01/27 07:59:57;;;;;;;5.07;4.57;;;;;;;1.91;100.00;97555.25;7407161;19;20374;-88
2024/01/27 08:02:26;;;;;;;8.63;5.37;;;;;;;1.42;100.00;97458.50;7410300;19;20375;-89
2024/01/27 08:04:53;;;;;;;16.80;6.67;;;;;;;1.42;100.00;97449.97;7405916;19;20371;-89
2024/01/27 08:07:21;;;;;;;8.40;6.27;;;;;;;1.91;100.00;97515.66;7402951;19;20671;-89
2024/01/27 08:09:48;;;;;;;6.80;5.20;;;;;;;1.73;100.00;97475.00;7399526;19;20385;-89
2024/01/27 08:12:15;;;;;;;9.70;5.37;;;;;;;2.00;100.00;97514.38;7402332;19;20392;-89
2024/01/27 08:14:43;;;;;;;3.70;3.40;;;;;;;1.98;100.00;97491.28;7402629;19;20365;-89
2024/01/27 08:17:11;;;;;;;5.07;3.70;;;;;;;2.05;100.00;97511.94;7401950;19;20377;-90
2024/01/27 08:19:38;;;;;;;5.13;2.50;;;;;;;2.41;100.00;97560.41;7402947;19;20401;-90
2024/01/27 08:22:06;;;;;;;8.90;3.87;;;;;;;2.42;100.00;97564.56;7402033;19;20376;-90
2024/01/27 08:24:33;;;;;;;4.57;3.30;;;;;;;2.49;100.00;97565.28;7399338;19;20414;-89
2024/01/27 08:27:01;;;;;;;4.87;2.97;;;;;;;1.93;100.00;97487.75;7401723;19;20368;-89
2024/01/27 08:29:28;;;;;;;5.10;3.10;;;;;;;2.35;100.00;97543.09;7400483;19;20376;-90
2024/01/27 08:31:56;;;;;;;3.00;2.40;;;;;;;2.05;100.00;97499.78;7403846;19;20397;-90
2024/01/27 08:34:24;;;;;;;6.70;3.13;;;;;;;2.42;100.00;97567.16;7399315;19;20377;-89
2024/01/27 08:36:51;;;;;;;11.30;4.43;;;;;;;2.10;100.00;97518.06;7401259;19;20464;-89
2024/01/27 08:39:19;;;;;;;5.60;3.37;;;;;;;2.73;100.00;97576.59;7401927;19;20384;-89
2024/01/27 08:41:46;;;;;;;11.17;3.40;;;;;;;2.61;100.00;97550.59;7401198;19;20389;-89
2024/01/27 08:44:17;;;;;;;8.80;3.97;;;;;;;2.92;100.00;97580.78;7400822;19;20894;-89
2024/01/27 08:46:45;;;;;;;6.20;4.67;;;;;;;2.93;100.00;97584.16;7401774;19;20386;-89
2024/01/27 08:49:12;;;;;;;8.17;4.90;;;;;;;2.89;100.00;97562.25;7399417;19;20392;-89
2024/01/27 08:51:40;;;;;;;8.67;4.17;;;;;;;3.03;100.00;97575.84;7401139;19;20452;-89
2024/01/27 08:54:07;;;;;;;10.63;4.03;;;;;;;3.05;100.00;97587.63;7397719;19;20420;-89
2024/01/27 08:56:39;;;;;;;10.03;4.37;;;;;;;2.93;100.00;97530.50;7401703;19;20377;-89
2024/01/27 08:59:07;;;;;;;8.37;3.90;;;;;;;2.84;100.00;97524.03;7402487;19;20862;-89
2024/01/27 09:01:34;;;;;;;7.63;3.63;;;;;;;3.01;100.00;97532.78;7402712;19;20361;-89
2024/01/27 09:04:02;;;;;;;11.30;4.80;;;;;;;2.87;100.00;97499.47;7399504;19;20428;-88
2024/01/27 09:06:29;;;;;;;10.67;5.60;;;;;;;3.45;100.00;97587.13;7400328;19;20405;-88
2024/01/27 09:08:58;;;;;;;3.40;2.80;;;;;;;3.12;100.00;97552.00;7398839;19;20418;-90
2024/01/27 09:11:29;;;;;;;8.40;7.70;;;;;;;3.70;100.00;97611.13;7400156;19;20386;-88
2024/01/27 09:13:57;;;;;;;6.47;2.90;;;;;;;3.58;100.00;97576.56;7398809;19;20405;-88
2024/01/27 09:16:25;;;;;;;11.63;4.37;;;;;;;3.27;100.00;97531.66;7400144;19;20835;-88
2024/01/27 09:18:52;;;;;;;14.13;5.40;;;;;;;3.77;100.00;97608.41;7399945;19;20377;-89
2024/01/27 09:21:22;;;;;;;6.33;3.40;;;;;;;3.29;100.00;97523.63;7400189;19;20373;-88
2024/01/27 09:23:50;;;;;;;5.33;3.50;;;;;;;3.37;100.00;97538.91;7398752;19;20801;-88
2024/01/27 09:26:18;;;;;;;5.83;3.80;;;;;;;3.58;100.00;97563.56;7399789;19;20383;-88
2024/01/27 09:28:53;;;;;;;5.53;3.40;;;;;;;3.36;100.00;97520.97;7399414;19;20373;-89
2024/01/27 09:31:22;;;;;;;10.50;3.60;;;;;;;3.48;100.00;97548.53;7399567;19;20385;-88
2024/01/27 09:33:55;;;;;;;5.93;2.93;;;;;;;3.74;100.00;97578.50;7398343;19;20455;-88
2024/01/27 09:36:25;;;;;;;6.10;2.73;;;;;;;3.70;100.00;97574.78;7399445;19;20408;-88
2024/01/27 09:38:54;;;;;;;8.70;4.23;;;;;;;4.26;100.00;97659.25;7399464;19;20380;-89
2024/01/27 09:41:22;;;;;;;3.20;1.87;;;;;;;3.83;100.00;97623.91;7401373;19;20394;-88
2024/01/27 09:43:51;;;;;;;13.47;4.67;;;;;;;3.69;100.00;97603.53;7398438;19;20393;-88
2024/01/27 09:46:19;;;;;;;8.57;3.37;;;;;;;4.09;100.00;97653.09;7399544;19;20377;-88
2024/01/27 09:48:46;;;;;;;10.70;3.20;;;;;;;3.88;100.00;97618.84;7398756;19;20386;-88
2024/01/27 09:51:14;;;;;;;11.87;3.13;;;;;;;3.73;100.00;97584.72;7399234;19;20384;-88
2024/01/27 09:53:41;;;;;;;6.63;2.73;;;;;;;4.43;100.00;97667.97;7397453;19;20453;-88
2024/01/27 09:56:09;;;;;;;7.57;2.93;;;;;;;4.26;100.00;97627.28;7399313;19;20400;-88
2024/01/27 09:58:37;;;;;;;6.07;3.40;;;;;;;4.65;100.00;97707.22;7407405;19;20377;-88
2024/01/27 10:01:07;;;;;;;6.93;3.20;;;;;;;4.61;100.00;97661.84;7413302;19;20361;-86
2024/01/27 10:03:38;;;;;;;11.20;2.90;;;;;;;5.07;100.00;97744.31;7400877;19;20416;-88
2024/01/27 10:06:09;;;;;;;5.53;3.33;;;;;;;4.32;100.00;97606.34;7399963;19;20371;-88
2024/01/27 10:08:37;;;;;;;13.00;5.43;;;;;;;4.09;100.00;97577.75;7397757;19;20382;-88
2024/01/27 10:11:08;;;;;;;9.40;6.53;;;;;;;5.34;100.00;97741.25;7398188;19;20381;-88
2024/01/27 10:13:36;;;;;;;13.13;4.30;;;;;;;5.22;100.00;97750.88;7397047;19;20413;-88
2024/01/27 10:16:08;;;;;;;9.50;4.67;;;;;;;4.57;100.00;97615.75;7398758;19;20395;-88
2024/01/27 10:18:35;;;;;;;16.10;4.13;;;;;;;4.52;100.00;97606.03;7398680;19;20511;-88
2024/01/27 10:21:14;;;;;;;6.90;3.30;;;;;;;4.87;100.00;97691.81;7398313;19;20457;-88
2024/01/27 10:23:41;;;;;;;11.83;4.40;;;;;;;4.95;100.00;97675.88;7397054;19;20405;-88
2024/01/27 10:26:09;;;;;;;9.07;4.00;;;;;;;5.57;100.00;97754.25;7397510;19;20393;-86
2024/01/27 10:28:37;;;;;;;21.23;3.33;;;;;;;4.87;100.00;97626.00;7397611;19;20727;-88
2024/01/27 10:31:12;;;;;;;10.53;4.50;;;;;;;5.14;100.00;97689.53;7397653;19;20428;-88
2024/01/27 10:33:40;;;;;;;13.90;3.37;;;;;;;4.56;100.00;97598.56;7396338;19;20412;-88
2024/01/27 10:36:07;;;;;;;9.40;3.90;;;;;;;5.03;100.00;97659.91;7397315;19;20472;-88
2024/01/27 10:38:39;;;;;;;10.83;3.40;;;;;;;4.46;100.00;97586.13;7397273;19;20452;-88
2024/01/27 10:41:10;;;;;;;8.60;3.93;;;;;;;4.32;100.00;97580.38;7398384;19;20377;-88
2024/01/27 10:43:39;;;;;;;10.43;4.10;;;;;;;4.82;100.00;97644.13;7396718;19;20457;-88
2024/01/27 10:46:08;;;;;;;15.63;3.87;;;;;;;5.55;100.00;97742.44;7397361;19;20392;-88
2024/01/27 10:48:36;;;;;;;6.03;2.70;;;;;;;4.85;100.00;97635.84;7397374;19;20388;-88
2024/01/27 10:51:09;;;;;;;8.40;3.07;;;;;;;5.57;100.00;97738.63;7397011;19;20381;-88
2024/01/27 10:53:39;;;;;;;12.43;5.43;;;;;;;5.27;100.00;97688.50;7395376;19;20484;-88
2024/01/27 10:56:09;;;;;;;14.23;6.33;;;;;;;4.85;100.00;97628.84;7396801;19;20377;-88
2024/01/27 10:58:41;;;;;;;19.33;8.20;;;;;;;5.03;100.00;97649.50;7396638;19;20369;-88
2024/01/27 11:01:11;;;;;;;16.33;4.00;;;;;;;5.45;100.00;97703.19;7397538;19;20381;-88
2024/01/27 11:03:41;;;;;;;9.13;4.13;;;;;;;4.84;100.00;97592.66;7395619;19;20395;-88
2024/01/27 11:06:11;;;;;;;13.57;7.67;;;;;;;5.49;100.00;97680.88;7396766;19;20389;-89
2024/01/27 11:08:39;;;;;;;20.50;10.00;;;;;;;5.44;100.00;97662.56;7396365;19;20372;-88
2024/01/27 11:11:11;;;;;;;10.23;3.63;;;;;;;5.62;100.00;97676.19;7396381;19;20385;-87
2024/01/27 11:13:39;;;;;;;12.83;4.63;;;;;;;5.44;100.00;97642.53;7395148;19;20413;-89
2024/01/27 11:16:16;;;;;;;11.10;2.93;;;;;;;5.92;100.00;97741.09;7396579;19;20385;-88
2024/01/27 11:18:45;;;;;;;9.30;4.30;;;;;;;6.10;100.00;97747.94;7398127;19;20390;-89
2024/01/27 11:21:17;;;;;;;10.57;4.10;;;;;;;6.02;100.00;97722.25;7396362;19;20392;-88
2024/01/27 11:23:47;;;;;;;9.90;3.30;;;;;;;6.25;100.00;97744.84;7395601;19;20439;-88
2024/01/27 11:26:21;;;;;;;7.50;3.37;;;;;;;5.86;100.00;97678.72;7396458;19;20710;-89
2024/01/27 11:28:49;;;;;;;7.50;2.60;;;;;;;6.03;100.00;97684.75;7395836;19;20899;-89
2024/01/27 11:31:20;;;;;;;9.70;4.20;;;;;;;6.37;100.00;97713.47;7395908;19;20384;-88
2024/01/27 11:33:51;;;;;;;8.63;3.17;;;;;;;5.71;100.00;97641.97;7395373;19;20428;-88
2024/01/27 11:36:24;;;;;;;9.43;3.83;;;;;;;5.81;100.00;97652.56;7396396;19;20365;-88
2024/01/27 11:38:53;;;;;;;7.43;3.10;;;;;;;6.54;100.00;97743.75;7396409;19;20463;-88